Time;durP1;ratioP1;P1;durP2;ratioP2;P2;SDS_P1;SDS_P2;PMS_P1;PMS_P2;Temp;Humidity;BMP_temperature;BMP_pressure;BME280_temperature;BME280_humidity;BME280_pressure;Samples;Min_cycle;Max_cycle;Signal;HPM_P1;HPM_P2
2021/09/09 00:01:17;;;;;;;12.00;8.10;;;;;;;19.96;62.22;102010.53;5004515;28;102560;-89
2021/09/09 00:03:45;;;;;;;12.63;7.97;;;;;;;19.96;62.60;102018.81;5008947;27;102589;-87
2021/09/09 00:06:12;;;;;;;11.43;8.33;;;;;;;19.96;62.54;102016.03;5007790;28;102324;-87
2021/09/09 00:08:39;;;;;;;10.25;7.35;;;;;;;19.96;62.55;102021.56;5004202;28;103324;-86
2021/09/09 00:11:06;;;;;;;11.02;7.50;;;;;;;19.95;62.53;102019.94;4998791;28;102580;-86
2021/09/09 00:13:32;;;;;;;10.43;8.07;;;;;;;19.96;62.39;102016.03;5012664;27;102209;-87
2021/09/09 00:15:59;;;;;;;12.18;8.65;;;;;;;19.95;62.34;102011.66;5005050;28;102243;-88
2021/09/09 00:18:26;;;;;;;12.63;8.27;;;;;;;19.94;62.31;102008.03;4990076;28;105019;-87
2021/09/09 00:21:01;;;;;;;11.30;8.00;;;;;;;19.93;62.42;102012.75;4995201;28;102775;-88
2021/09/09 00:23:27;;;;;;;;;;;;;;;19.94;62.82;102008.03;5009721;28;103128;-87
2021/09/09 00:25:53;;;;;;;9.50;7.43;;;;;;;19.92;62.51;102008.34;5017772;28;102599;-88
2021/09/09 00:28:20;;;;;;;8.95;7.07;;;;;;;19.93;62.47;102011.94;5005802;28;102675;-87
2021/09/09 00:30:50;;;;;;;10.82;7.93;;;;;;;19.93;62.42;102007.22;4991464;28;102745;-88
2021/09/09 00:33:17;;;;;;;12.40;7.72;;;;;;;19.92;62.71;102016.66;5009057;28;103840;-88
2021/09/09 00:35:44;;;;;;;11.13;7.53;;;;;;;19.92;62.44;102011.13;4995219;28;102544;-90
2021/09/09 00:38:16;;;;;;;10.25;7.93;;;;;;;19.92;62.83;102015.84;4992880;28;105289;-89
2021/09/09 00:40:45;;;;;;;12.65;7.90;;;;;;;19.93;62.42;102011.94;5008188;28;102245;-87
2021/09/09 00:43:12;;;;;;;11.57;7.80;;;;;;;19.92;62.65;102002.84;4993575;28;102749;-86
2021/09/09 00:45:40;;;;;;;10.25;7.72;;;;;;;19.91;62.82;102006.72;5020667;27;102672;-86
2021/09/09 00:48:07;;;;;;;9.95;7.47;;;;;;;19.91;62.58;102006.72;5004781;28;102833;-86
2021/09/09 00:50:33;;;;;;;14.20;8.45;;;;;;;19.92;62.65;102004.78;5011407;28;102102;-86
2021/09/09 00:53:01;;;;;;;10.63;7.25;;;;;;;19.91;62.75;102003.97;5011164;28;102634;-86
2021/09/09 00:55:29;;;;;;;12.15;7.68;;;;;;;19.91;62.82;102003.16;5007264;28;102485;-86
2021/09/09 00:57:56;;;;;;;10.70;7.57;;;;;;;19.91;62.74;102003.97;5007907;28;102717;-86
2021/09/09 01:00:22;;;;;;;12.15;7.13;;;;;;;19.91;62.62;102006.72;5004789;28;102532;-86
2021/09/09 01:02:49;;;;;;;11.02;7.00;;;;;;;19.90;62.49;101999.53;5004544;28;102173;-86
2021/09/09 01:05:15;;;;;;;10.82;7.50;;;;;;;19.90;62.72;101996.78;5011568;28;102791;-86
2021/09/09 01:07:42;;;;;;;10.07;7.40;;;;;;;19.90;62.84;102002.31;5014888;28;104875;-86
2021/09/09 01:10:09;;;;;;;9.30;6.70;;;;;;;19.90;62.77;101995.97;4992579;28;102552;-87
2021/09/09 01:12:37;;;;;;;11.07;7.53;;;;;;;19.91;62.93;101997.63;5008593;28;102488;-87
2021/09/09 01:15:12;;;;;;;8.90;6.90;;;;;;;19.89;62.27;101997.91;4994037;28;102405;-87
2021/09/09 01:17:39;;;;;;;9.70;7.32;;;;;;;19.89;62.94;101989.63;5023607;27;102771;-86
2021/09/09 01:20:06;;;;;;;9.35;7.07;;;;;;;19.89;62.71;101992.38;5014246;28;102294;-87
2021/09/09 01:22:33;;;;;;;9.18;6.60;;;;;;;19.90;62.75;101985.72;5015566;28;102227;-87
2021/09/09 01:25:01;;;;;;;8.73;6.82;;;;;;;19.90;62.87;101996.78;5018734;27;102221;-86
2021/09/09 01:27:28;;;;;;;9.20;6.50;;;;;;;19.89;62.81;101989.63;5009803;28;102698;-86
2021/09/09 01:29:55;;;;;;;9.13;6.55;;;;;;;19.88;62.76;101982.47;5008364;28;102831;-88
2021/09/09 01:32:26;;;;;;;9.85;7.00;;;;;;;19.88;62.64;101982.47;5006271;28;102489;-87
2021/09/09 01:34:53;;;;;;;8.57;6.32;;;;;;;19.89;62.68;101992.38;5011945;28;102476;-85
2021/09/09 01:37:26;;;;;;;9.15;6.88;;;;;;;19.88;62.90;101982.47;5010886;28;104313;-85
2021/09/09 01:39:55;;;;;;;8.35;6.35;;;;;;;19.88;62.71;101976.94;5003515;28;102295;-87
2021/09/09 01:42:23;;;;;;;9.13;5.75;;;;;;;19.88;62.93;101988.00;4991742;28;102901;-87
2021/09/09 01:44:50;;;;;;;8.40;6.20;;;;;;;19.88;62.90;101967.84;5008730;28;102243;-86
2021/09/09 01:47:17;;;;;;;8.10;6.32;;;;;;;19.89;62.92;101972.22;5009480;28;103098;-87
2021/09/09 01:49:44;;;;;;;7.90;6.05;;;;;;;19.88;62.92;101976.94;4994531;28;102642;-87
2021/09/09 01:52:10;;;;;;;8.52;6.35;;;;;;;19.88;62.84;101974.19;4993760;28;102785;-86
2021/09/09 01:54:37;;;;;;;10.43;6.70;;;;;;;19.88;63.14;101981.66;4993110;28;102401;-85
2021/09/09 01:57:05;;;;;;;7.95;6.68;;;;;;;19.86;62.56;101965.34;5005521;28;103911;-87
2021/09/09 01:59:34;;;;;;;8.50;6.78;;;;;;;19.87;63.23;101969.78;5016489;28;102838;-88
2021/09/09 02:02:01;;;;;;;8.63;6.57;;;;;;;19.87;63.07;101964.25;5028637;27;102666;-88
2021/09/09 02:04:29;;;;;;;9.68;6.18;;;;;;;19.88;62.99;101970.59;4997305;28;102656;-87
2021/09/09 02:06:56;;;;;;;8.77;6.15;;;;;;;19.86;62.95;101968.13;5012073;28;102439;-88
2021/09/09 02:09:23;;;;;;;9.57;7.32;;;;;;;19.87;63.02;101969.78;5010628;27;102415;-87
2021/09/09 02:11:49;;;;;;;9.60;6.95;;;;;;;19.86;62.83;101967.31;5012077;28;102106;-88
2021/09/09 02:14:16;;;;;;;7.85;6.10;;;;;;;19.87;63.15;101974.47;5010783;28;102686;-87
2021/09/09 02:16:44;;;;;;;8.82;6.65;;;;;;;19.86;63.05;101973.66;5016080;28;103091;-86
2021/09/09 02:19:11;;;;;;;8.48;6.68;;;;;;;19.86;63.03;101973.66;5007096;28;102212;-86
2021/09/09 02:21:38;;;;;;;11.07;6.47;;;;;;;19.85;63.14;101977.53;5029369;27;102116;-87
2021/09/09 02:24:05;;;;;;;9.50;7.22;;;;;;;19.85;63.18;101969.25;5014782;28;102254;-86
2021/09/09 02:26:31;;;;;;;9.05;6.75;;;;;;;19.86;62.84;101972.84;5015195;28;102491;-87
2021/09/09 02:28:58;;;;;;;8.70;6.72;;;;;;;19.85;63.31;101958.22;5014048;28;103591;-88
2021/09/09 02:31:26;;;;;;;9.82;6.72;;;;;;;19.86;63.04;101973.66;5013092;28;102434;-88
2021/09/09 02:33:54;;;;;;;8.98;6.30;;;;;;;19.85;63.24;101962.91;5032188;27;102386;-86
2021/09/09 02:36:21;;;;;;;10.50;6.97;;;;;;;19.84;63.07;101967.63;5008181;28;102852;-88
2021/09/09 02:38:47;;;;;;;8.55;6.47;;;;;;;19.85;63.51;101971.19;4995336;28;102712;-87
2021/09/09 02:41:14;;;;;;;9.63;6.13;;;;;;;19.86;62.92;101973.66;5013989;28;102200;-86
2021/09/09 02:43:41;;;;;;;10.48;7.00;;;;;;;19.85;63.34;101977.53;5018277;28;102117;-86
2021/09/09 02:46:08;;;;;;;8.73;6.65;;;;;;;19.85;63.20;101969.25;5013615;28;102265;-86
2021/09/09 02:48:34;;;;;;;7.38;5.97;;;;;;;19.84;63.17;101970.38;5012178;28;103411;-86
2021/09/09 02:51:03;;;;;;;8.30;6.70;;;;;;;19.84;63.04;101970.38;5021897;28;103303;-86
2021/09/09 02:53:30;;;;;;;9.10;5.90;;;;;;;19.84;63.28;101970.38;5032494;27;102267;-85
2021/09/09 02:55:57;;;;;;;8.38;6.43;;;;;;;19.85;63.20;101971.19;5008927;28;102647;-86
2021/09/09 02:58:24;;;;;;;10.75;6.97;;;;;;;19.84;63.12;101973.16;5008277;28;102928;-87
2021/09/09 03:00:50;;;;;;;8.52;6.60;;;;;;;19.83;63.28;101968.72;5008580;28;102233;-87
2021/09/09 03:03:20;;;;;;;7.43;5.75;;;;;;;19.84;63.46;101975.91;5010127;28;102739;-87
2021/09/09 03:05:47;;;;;;;9.13;6.65;;;;;;;19.83;63.13;101977.00;4988434;28;104030;-90
2021/09/09 03:08:16;;;;;;;7.72;6.30;;;;;;;19.83;63.39;101974.25;5008497;28;102598;-90
2021/09/09 03:10:47;;;;;;;7.97;5.97;;;;;;;19.83;63.19;101974.25;5005782;28;102427;-86
2021/09/09 03:13:14;;;;;;;8.15;5.97;;;;;;;19.83;63.49;101982.53;4993878;28;102185;-87
2021/09/09 03:15:41;;;;;;;8.70;5.97;;;;;;;19.83;63.43;101974.25;5008078;28;104859;-87
2021/09/09 03:18:09;;;;;;;8.63;5.93;;;;;;;19.83;63.22;101968.72;5008084;28;102974;-87
2021/09/09 03:20:37;;;;;;;8.85;6.05;;;;;;;19.83;63.04;101973.44;4989131;28;103954;-87
2021/09/09 03:23:05;;;;;;;7.28;6.20;;;;;;;19.83;63.20;101979.78;5020370;27;102941;-88
2021/09/09 03:25:35;;;;;;;7.55;6.30;;;;;;;19.82;63.32;101980.91;5026315;27;103523;-88
2021/09/09 03:28:07;;;;;;;7.60;6.05;;;;;;;19.82;63.19;101978.16;4999614;28;102489;-88
2021/09/09 03:30:36;;;;;;;6.78;6.05;;;;;;;19.82;63.33;101978.16;4982750;28;102216;-88
2021/09/09 03:33:09;;;;;;;9.85;5.78;;;;;;;19.82;63.54;101986.44;5000569;28;102816;-87
2021/09/09 03:35:39;;;;;;;7.10;5.75;;;;;;;19.82;63.07;101983.66;5009923;28;103075;-88
2021/09/09 03:38:09;;;;;;;12.32;6.25;;;;;;;19.81;63.11;101979.28;5006984;28;103000;-88
2021/09/09 03:40:39;;;;;;;8.60;5.97;;;;;;;19.82;63.50;101989.19;5003962;28;102605;-88
2021/09/09 03:43:06;;;;;;;8.18;6.25;;;;;;;19.82;63.24;101986.44;4988881;28;102891;-88
2021/09/09 03:45:33;;;;;;;8.95;6.30;;;;;;;19.81;63.50;101987.56;4989490;28;104479;-87
2021/09/09 03:48:02;;;;;;;;;;;;;;;19.82;63.60;102000.25;5005883;28;102119;-87
2021/09/09 03:50:33;;;;;;;8.30;5.93;;;;;;;19.82;63.21;101994.72;4996174;28;102759;-87
2021/09/09 03:53:00;;;;;;;6.95;5.18;;;;;;;19.81;63.54;101990.31;4996816;28;102263;-90
2021/09/09 03:55:26;;;;;;;8.30;5.93;;;;;;;19.82;63.20;101989.19;5004833;28;105086;-87
2021/09/09 03:57:55;;;;;;;8.60;6.32;;;;;;;19.82;63.56;101994.72;5006653;28;102936;-88
2021/09/09 04:00:22;;;;;;;8.88;6.47;;;;;;;19.81;63.43;101990.31;5005183;28;102350;-87
2021/09/09 04:02:48;;;;;;;8.38;6.25;;;;;;;19.81;63.20;101998.63;5010524;28;102524;-88
2021/09/09 04:05:49;;;;;;;8.68;6.38;;;;;;;19.81;63.67;101987.56;4989810;28;104183;-90
2021/09/09 04:08:25;;;;;;;9.43;6.28;;;;;;;19.81;63.10;101993.09;5004725;28;102464;-88
2021/09/09 04:10:52;;;;;;;7.93;5.97;;;;;;;19.81;63.40;101992.28;5000315;28;102639;-88
2021/09/09 04:13:23;;;;;;;8.93;6.03;;;;;;;19.81;63.51;102001.38;5008571;28;102768;-89
2021/09/09 04:15:50;;;;;;;7.33;6.10;;;;;;;19.81;63.34;101997.78;5005434;28;104843;-88
2021/09/09 04:18:17;;;;;;;7.28;5.68;;;;;;;19.80;63.65;102002.50;5009977;28;102496;-87
2021/09/09 04:20:44;;;;;;;7.97;6.03;;;;;;;19.80;63.41;101996.97;5011598;28;102210;-86
2021/09/09 04:23:11;;;;;;;8.52;6.40;;;;;;;19.80;63.41;102001.66;5006867;28;103399;-87
2021/09/09 04:25:38;;;;;;;7.13;5.93;;;;;;;19.80;63.37;102002.50;5004385;28;104256;-86
2021/09/09 04:28:05;;;;;;;10.27;6.60;;;;;;;19.80;63.53;102002.50;5004165;28;102527;-86
2021/09/09 04:30:34;;;;;;;7.30;5.70;;;;;;;19.79;63.65;102000.84;4999997;28;102246;-86
2021/09/09 04:33:00;;;;;;;7.67;6.10;;;;;;;19.79;63.49;102000.84;5007719;28;103739;-87
2021/09/09 04:35:27;;;;;;;6.43;5.55;;;;;;;19.80;63.50;102002.50;5007108;28;102496;-86
2021/09/09 04:37:54;;;;;;;7.78;5.70;;;;;;;19.79;63.40;102000.84;5008394;27;102189;-87
2021/09/09 04:40:21;;;;;;;7.28;5.53;;;;;;;19.80;63.80;102001.66;5007431;27;102448;-87
2021/09/09 04:42:54;;;;;;;8.43;5.90;;;;;;;19.79;63.60;102000.84;5005681;28;102712;-87
2021/09/09 04:45:25;;;;;;;6.85;5.18;;;;;;;19.80;63.19;102004.41;5005234;28;102782;-85
2021/09/09 04:47:53;;;;;;;7.22;5.50;;;;;;;19.79;63.67;101995.31;5007966;28;102690;-86
2021/09/09 04:50:24;;;;;;;6.88;5.18;;;;;;;19.79;63.54;102000.84;5008127;28;102462;-87
2021/09/09 04:52:52;;;;;;;;;;;;;;;19.80;63.69;101993.38;5008302;28;102139;-87
2021/09/09 04:55:19;;;;;;;8.30;6.22;;;;;;;19.79;63.74;101987.03;5006277;28;103823;-87
2021/09/09 04:57:46;;;;;;;8.10;5.80;;;;;;;19.79;63.63;101994.50;4996286;28;102484;-87
2021/09/09 05:00:13;;;;;;;6.75;5.40;;;;;;;19.80;63.50;101993.38;4996675;28;102171;-87
2021/09/09 05:02:39;;;;;;;8.43;6.15;;;;;;;19.79;63.83;101995.31;5008708;27;102759;-87
2021/09/09 05:05:09;;;;;;;8.65;5.57;;;;;;;19.79;63.83;101989.78;5011576;28;102826;-87
2021/09/09 05:07:36;;;;;;;7.22;5.90;;;;;;;19.79;63.85;101984.28;5010892;28;102567;-87
2021/09/09 05:10:03;;;;;;;9.32;6.18;;;;;;;19.80;63.70;101983.16;5012647;27;102549;-87
2021/09/09 05:12:29;;;;;;;10.77;6.47;;;;;;;19.79;63.81;101989.78;5028315;27;102461;-87
2021/09/09 05:14:56;;;;;;;9.18;6.00;;;;;;;19.78;63.90;101979.88;5005187;28;102765;-87
2021/09/09 05:17:25;;;;;;;7.00;5.30;;;;;;;19.80;63.84;101985.09;5008270;28;102284;-88
2021/09/09 05:19:52;;;;;;;7.35;5.55;;;;;;;19.79;63.80;101978.75;4993359;28;102714;-88
2021/09/09 05:22:20;;;;;;;9.93;6.10;;;;;;;19.81;63.91;101981.22;5019441;27;102584;-87
2021/09/09 05:24:47;;;;;;;7.07;5.10;;;;;;;19.81;63.93;101986.75;4993494;28;104346;-88
2021/09/09 05:27:14;;;;;;;7.07;5.60;;;;;;;19.80;63.50;101972.13;4994646;28;103167;-88
2021/09/09 05:29:41;;;;;;;7.07;5.65;;;;;;;19.80;63.93;101977.66;5009553;28;102454;-91
2021/09/09 05:32:07;;;;;;;7.95;5.18;;;;;;;19.80;63.77;101980.41;4987943;28;103880;-88
2021/09/09 05:34:34;;;;;;;5.50;4.40;;;;;;;19.82;63.66;101980.91;5003384;28;103217;-87
2021/09/09 05:37:01;;;;;;;6.63;4.75;;;;;;;19.82;63.78;101986.44;5008186;28;102649;-87
2021/09/09 05:39:29;;;;;;;18.65;5.00;;;;;;;19.82;63.70;101983.66;5004369;28;103333;-88
2021/09/09 05:41:55;;;;;;;9.43;5.17;;;;;;;19.83;63.53;101977.00;5009837;28;102345;-88
2021/09/09 05:44:23;;;;;;;6.35;5.20;;;;;;;19.84;63.61;101978.69;5006478;28;108003;-88
2021/09/09 05:46:49;;;;;;;7.43;5.20;;;;;;;19.84;63.75;101986.16;5006408;28;102240;-86
2021/09/09 05:49:16;;;;;;;12.63;5.82;;;;;;;19.85;63.82;101982.25;5005463;28;102472;-86
2021/09/09 05:51:43;;;;;;;9.38;5.40;;;;;;;19.85;63.95;101977.53;5005354;28;102167;-86
2021/09/09 05:54:10;;;;;;;8.00;5.18;;;;;;;19.86;63.91;101978.34;5004885;28;102716;-86
2021/09/09 05:56:38;;;;;;;9.38;5.38;;;;;;;19.87;63.63;101971.69;5005481;28;103533;-87
2021/09/09 05:59:12;;;;;;;7.00;5.38;;;;;;;19.87;64.17;101964.25;5004333;28;102706;-87
2021/09/09 06:01:40;;;;;;;7.03;5.30;;;;;;;19.87;63.96;101975.31;5008315;28;102830;-86
2021/09/09 06:04:09;;;;;;;5.68;4.70;;;;;;;19.87;63.79;101971.69;5006064;28;103548;-86
2021/09/09 06:06:36;;;;;;;6.50;5.30;;;;;;;19.89;63.77;101966.69;5009684;28;102388;-86
2021/09/09 06:09:04;;;;;;;7.60;5.63;;;;;;;19.89;63.60;101967.53;5010410;28;102267;-86
2021/09/09 06:11:33;;;;;;;7.65;5.30;;;;;;;19.88;64.37;101965.88;5009666;28;103201;-87
2021/09/09 06:14:04;;;;;;;7.72;5.07;;;;;;;19.88;63.73;101965.88;5004189;28;104343;-87
2021/09/09 06:16:34;;;;;;;6.75;4.80;;;;;;;19.88;63.84;101960.38;5004116;28;102483;-84
2021/09/09 06:19:17;;;;;;;9.48;5.13;;;;;;;19.89;63.73;101967.53;5009203;27;102264;-86
2021/09/09 06:21:44;;;;;;;9.18;5.15;;;;;;;19.89;63.67;101967.53;5017227;28;102186;-86
2021/09/09 06:24:10;;;;;;;9.80;5.75;;;;;;;19.89;64.05;101967.53;5006509;28;102826;-89
2021/09/09 06:26:37;;;;;;;9.10;5.38;;;;;;;19.91;64.26;101972.75;5009219;28;102501;-89
2021/09/09 06:29:05;;;;;;;9.27;5.57;;;;;;;19.89;63.46;101967.53;4996475;28;102182;-88
2021/09/09 06:31:34;;;;;;;6.97;4.88;;;;;;;19.90;63.75;101955.34;5015056;28;102362;-87
2021/09/09 06:34:01;;;;;;;5.85;5.03;;;;;;;19.90;63.65;101974.69;5009702;28;103204;-88
2021/09/09 06:36:30;;;;;;;7.25;5.05;;;;;;;19.89;63.64;101973.03;5030543;27;103557;-86
2021/09/09 06:38:56;;;;;;;6.82;5.35;;;;;;;19.90;63.41;101976.63;5009191;28;102355;-86
2021/09/09 06:41:23;;;;;;;6.28;4.50;;;;;;;19.89;63.40;101973.03;5010140;28;102310;-86
2021/09/09 06:43:49;;;;;;;7.30;4.53;;;;;;;19.91;63.39;101972.75;5003893;28;102678;-84
2021/09/09 06:46:17;;;;;;;8.45;5.10;;;;;;;19.89;63.51;101973.03;5007872;28;103662;-84
2021/09/09 06:48:45;;;;;;;7.40;5.15;;;;;;;19.90;63.49;101969.16;5009770;28;102240;-85
2021/09/09 06:51:11;;;;;;;6.97;4.95;;;;;;;19.91;63.51;101975.53;5010657;28;102445;-84
2021/09/09 06:53:38;;;;;;;7.20;5.00;;;;;;;19.91;63.36;101976.34;5000514;28;103730;-84
2021/09/09 06:56:04;;;;;;;10.43;4.78;;;;;;;19.91;63.34;101979.09;5021940;27;102483;-83
2021/09/09 06:58:35;;;;;;;7.70;5.30;;;;;;;19.91;63.17;101986.56;4991221;28;102337;-83
2021/09/09 07:01:03;;;;;;;6.95;5.10;;;;;;;19.91;62.99;101981.88;4994582;28;102205;-96
2021/09/09 07:03:32;;;;;;;8.30;4.43;;;;;;;19.91;63.41;101984.63;4975987;28;103246;-96
2021/09/09 07:06:04;;;;;;;9.90;5.07;;;;;;;19.93;63.26;101990.66;4963507;28;101915;-95
2021/09/09 07:08:31;;;;;;;8.45;5.00;;;;;;;19.93;62.56;101989.84;4979037;28;102648;-94
2021/09/09 07:10:58;;;;;;;7.53;4.68;;;;;;;19.93;63.14;101990.66;4961926;28;101474;-95
2021/09/09 07:13:28;;;;;;;7.70;4.95;;;;;;;19.94;62.95;101985.94;4976506;28;102099;-94
2021/09/09 07:15:56;;;;;;;8.63;4.53;;;;;;;19.94;62.89;101985.94;4958527;28;101967;-92
2021/09/09 07:18:23;;;;;;;8.88;4.60;;;;;;;19.96;63.10;101996.69;4975133;28;102368;-93
2021/09/09 07:20:52;;;;;;;9.50;5.35;;;;;;;19.96;62.79;101994.75;4975605;28;102632;-93
2021/09/09 07:23:19;;;;;;;7.63;4.60;;;;;;;19.97;62.53;101990.03;4953333;28;102588;-94
2021/09/09 07:25:46;;;;;;;10.20;5.13;;;;;;;19.97;62.72;102001.91;4952032;28;102212;-92
2021/09/09 07:28:13;;;;;;;7.60;4.70;;;;;;;19.98;62.77;101994.44;4984466;28;102211;-90
2021/09/09 07:30:41;;;;;;;6.30;4.80;;;;;;;19.98;62.60;102005.50;4969618;28;102534;-90
2021/09/09 07:33:08;;;;;;;7.18;4.68;;;;;;;20.00;62.51;102000.50;4981789;28;106689;-88
2021/09/09 07:35:34;;;;;;;10.98;5.00;;;;;;;20.00;62.79;102000.50;4986321;28;103296;-89
2021/09/09 07:38:03;;;;;;;9.30;5.32;;;;;;;20.00;62.69;101994.97;4984799;28;102762;-91
2021/09/09 07:40:30;;;;;;;11.23;4.95;;;;;;;20.00;62.70;101990.25;4989182;28;103448;-87
2021/09/09 07:42:57;;;;;;;8.23;4.90;;;;;;;20.01;62.67;101991.06;4982862;28;102916;-88
2021/09/09 07:45:24;;;;;;;7.70;5.13;;;;;;;20.02;62.57;101996.31;4971832;28;102553;-87
2021/09/09 07:47:51;;;;;;;10.32;5.70;;;;;;;20.03;62.26;101994.38;4973296;28;102563;-87
2021/09/09 07:50:18;;;;;;;8.48;4.97;;;;;;;20.03;62.38;101991.59;4982793;28;103249;-87
2021/09/09 07:52:44;;;;;;;9.18;5.25;;;;;;;20.03;61.85;101994.38;4980870;28;102555;-87
2021/09/09 07:55:15;;;;;;;9.60;4.60;;;;;;;20.04;62.24;101996.00;4987644;28;102731;-87
2021/09/09 07:57:45;;;;;;;7.15;4.90;;;;;;;20.05;61.72;101992.09;5001364;28;102582;-86
2021/09/09 08:00:13;;;;;;;5.75;4.55;;;;;;;20.05;61.91;101981.03;5005054;28;102736;-82
2021/09/09 08:02:40;;;;;;;6.60;4.55;;;;;;;20.06;61.67;101982.72;5005293;28;105672;-83
2021/09/09 08:05:08;;;;;;;6.63;4.80;;;;;;;20.06;61.65;101989.06;5003986;28;102697;-83
2021/09/09 08:07:39;;;;;;;50.70;7.57;;;;;;;20.07;61.62;101978.81;5009846;28;102678;-83
2021/09/09 08:10:09;;;;;;;10.35;4.57;;;;;;;20.07;61.81;101985.16;5012730;28;103154;-83
2021/09/09 08:12:37;;;;;;;6.38;4.10;;;;;;;20.08;61.27;101981.25;5006525;28;104191;-83
2021/09/09 08:15:04;;;;;;;12.80;4.93;;;;;;;20.08;61.51;101980.44;5012087;28;102827;-82
2021/09/09 08:17:31;;;;;;;20.67;4.80;;;;;;;20.10;61.29;101978.22;5002922;28;102386;-82
2021/09/09 08:19:58;;;;;;;6.82;4.75;;;;;;;20.10;61.46;101969.91;5011110;28;102480;-87
2021/09/09 08:22:26;;;;;;;6.88;4.35;;;;;;;20.10;61.33;101969.91;5004300;28;102734;-87
2021/09/09 08:24:52;;;;;;;8.60;4.73;;;;;;;20.11;61.35;101966.03;5015746;28;102678;-87
2021/09/09 08:27:19;;;;;;;7.30;4.50;;;;;;;20.12;60.98;101975.94;5001724;28;102351;-87
2021/09/09 08:29:48;;;;;;;8.15;5.00;;;;;;;20.14;60.83;101970.94;5008931;28;102467;-87
2021/09/09 08:32:15;;;;;;;7.93;4.40;;;;;;;20.13;61.27;101966.53;5010706;28;102532;-87
2021/09/09 08:34:44;;;;;;;14.73;6.00;;;;;;;20.14;61.05;101969.00;5014281;28;102385;-86
2021/09/09 08:37:11;;;;;;;5.97;4.32;;;;;;;20.16;61.16;101968.69;5000497;28;102701;-83
2021/09/09 08:39:38;;;;;;;8.60;4.80;;;;;;;20.15;61.02;101973.38;5002120;28;103379;-83
2021/09/09 08:42:06;;;;;;;9.95;4.57;;;;;;;20.16;61.00;101968.69;5011569;28;104074;-83
2021/09/09 08:44:33;;;;;;;9.02;4.55;;;;;;;20.16;61.10;101964.00;5013714;28;102576;-84
2021/09/09 08:47:02;;;;;;;6.10;4.55;;;;;;;20.17;60.94;101962.03;4997944;28;102539;-82
2021/09/09 08:49:29;;;;;;;5.70;4.50;;;;;;;20.18;61.17;101958.13;5015954;28;102337;-82
2021/09/09 08:51:58;;;;;;;6.47;4.57;;;;;;;20.20;60.88;101960.63;5010788;28;103047;-83
2021/09/09 08:54:26;;;;;;;8.47;4.93;;;;;;;20.20;60.99;101952.31;5011826;28;102215;-83
2021/09/09 08:56:53;;;;;;;7.00;3.97;;;;;;;20.20;60.92;101955.91;5010436;28;102331;-82
2021/09/09 08:59:20;;;;;;;7.60;4.10;;;;;;;20.20;60.79;101958.66;5028669;27;102889;-83
2021/09/09 09:02:03;;;;;;;6.05;4.05;;;;;;;20.21;60.52;101953.97;5015198;28;103308;-82
2021/09/09 09:04:30;;;;;;;6.65;4.30;;;;;;;20.20;60.54;101944.84;5007468;28;103604;-83
2021/09/09 09:06:58;;;;;;;10.43;4.72;;;;;;;20.20;60.51;101939.31;5008656;28;102571;-82
2021/09/09 09:09:25;;;;;;;5.88;4.45;;;;;;;20.21;60.62;101952.00;5005894;28;102788;-83
2021/09/09 09:11:52;;;;;;;6.88;4.30;;;;;;;20.21;60.53;101940.94;5007184;28;102944;-82
2021/09/09 09:14:21;;;;;;;5.20;4.30;;;;;;;20.21;60.54;101940.94;5007382;27;102352;-82
2021/09/09 09:16:50;;;;;;;7.28;4.60;;;;;;;20.21;60.59;101946.47;5010293;28;102279;-82
2021/09/09 09:19:20;;;;;;;7.00;4.13;;;;;;;20.22;60.47;101941.75;5009481;27;102334;-82
2021/09/09 09:21:50;;;;;;;5.55;4.25;;;;;;;20.22;60.45;101936.22;5010189;28;103101;-82
2021/09/09 09:24:19;;;;;;;7.00;4.65;;;;;;;20.22;60.50;101936.22;5010213;28;102307;-82
2021/09/09 09:27:06;;;;;;;5.65;4.13;;;;;;;20.23;60.10;101933.19;5017910;27;102800;-83
2021/09/09 09:29:34;;;;;;;7.00;4.18;;;;;;;20.22;60.66;101934.28;5003713;28;102634;-82
2021/09/09 09:32:16;;;;;;;6.70;4.32;;;;;;;20.23;60.26;101929.56;5009862;28;104041;-83
2021/09/09 09:34:46;;;;;;;5.25;3.90;;;;;;;20.23;60.24;101933.19;5005911;28;102582;-83
2021/09/09 09:37:18;;;;;;;;;;;;;;;20.24;60.28;101928.47;5006399;28;103054;-83
2021/09/09 09:39:45;;;;;;;9.10;7.20;;;;;;;20.23;60.17;101922.13;5009522;28;102569;-83
2021/09/09 09:42:11;;;;;;;8.52;6.85;;;;;;;20.23;60.36;101926.81;5007826;28;103057;-84
2021/09/09 09:44:47;;;;;;;8.70;6.38;;;;;;;20.23;60.17;101922.13;5006461;27;102844;-87
2021/09/09 09:47:16;;;;;;;7.75;6.10;;;;;;;20.22;60.22;101923.22;5010418;28;102284;-84
2021/09/09 09:49:45;;;;;;;8.20;6.20;;;;;;;20.23;59.97;101919.38;5022930;27;102594;-83
2021/09/09 09:52:19;;;;;;;8.70;6.13;;;;;;;20.22;59.89;101920.47;5006164;27;102082;-83
2021/09/09 09:54:51;;;;;;;6.57;5.88;;;;;;;20.23;59.81;101919.38;5006963;28;102284;-83
2021/09/09 09:57:18;;;;;;;12.75;6.13;;;;;;;20.24;60.09;101917.41;5005156;28;103414;-83
2021/09/09 09:59:44;;;;;;;8.57;5.95;;;;;;;20.23;60.22;101919.38;5005531;28;102417;-83
2021/09/09 10:02:11;;;;;;;7.43;5.75;;;;;;;20.23;60.04;101924.88;5009640;28;104154;-84
2021/09/09 10:04:41;;;;;;;8.38;5.63;;;;;;;20.22;59.69;101923.22;5009448;28;102317;-84
2021/09/09 10:07:10;;;;;;;6.65;5.40;;;;;;;20.22;59.72;101923.22;5010220;28;102387;-84
2021/09/09 10:09:38;;;;;;;10.40;5.80;;;;;;;20.22;59.79;101925.19;5010666;28;102788;-84
2021/09/09 10:12:06;;;;;;;10.90;5.30;;;;;;;20.21;59.38;101921.59;5011982;28;104023;-87
2021/09/09 10:14:55;;;;;;;8.30;4.93;;;;;;;20.22;59.39;101926.00;5006524;28;102179;-86
2021/09/09 10:17:24;;;;;;;5.85;4.80;;;;;;;20.20;59.22;101917.22;5010763;28;102196;-87
2021/09/09 10:19:52;;;;;;;9.18;6.25;;;;;;;20.21;59.47;101924.38;5026396;27;102667;-86
2021/09/09 10:22:21;;;;;;;5.63;4.57;;;;;;;20.19;59.01;101915.56;5008644;28;106611;-86
2021/09/09 10:24:49;;;;;;;8.65;4.78;;;;;;;20.18;58.76;101908.38;5002201;28;102453;-86
2021/09/09 10:27:20;;;;;;;6.60;4.78;;;;;;;20.19;59.01;101903.69;5010508;28;102515;-86
2021/09/09 10:29:53;;;;;;;8.38;4.90;;;;;;;20.18;59.15;101911.16;5011569;28;102150;-86
2021/09/09 10:32:49;;;;;;;5.88;4.65;;;;;;;20.18;59.07;101900.09;5021171;27;103856;-85
2021/09/09 10:35:30;;;;;;;5.80;4.75;;;;;;;20.19;59.36;101898.97;5005064;28;102663;-85
2021/09/09 10:38:20;;;;;;;8.98;4.82;;;;;;;20.19;59.02;101895.38;5008873;28;102145;-86
2021/09/09 10:40:47;;;;;;;6.38;4.72;;;;;;;20.17;59.05;101898.47;5013586;28;102608;-85
2021/09/09 10:43:37;;;;;;;9.07;4.63;;;;;;;20.17;58.93;101895.72;5003464;28;104011;-85
2021/09/09 10:46:05;;;;;;;7.55;5.00;;;;;;;20.18;59.29;101894.56;5000659;28;103466;-86
2021/09/09 10:48:32;;;;;;;7.40;5.00;;;;;;;20.16;59.19;101886.59;5005884;28;102536;-86
2021/09/09 10:51:00;;;;;;;8.32;4.93;;;;;;;20.15;58.86;101884.94;5009072;28;102217;-85
2021/09/09 10:53:35;;;;;;;6.53;4.88;;;;;;;20.16;58.63;101880.25;5008389;28;106666;-86
2021/09/09 10:56:10;;;;;;;9.18;4.68;;;;;;;20.16;58.86;101881.06;5011256;28;102687;-88
2021/09/09 10:58:37;;;;;;;7.13;4.80;;;;;;;20.15;58.67;101881.38;5011244;28;102363;-86
2021/09/09 11:01:08;;;;;;;5.47;4.65;;;;;;;20.14;58.55;101871.44;5011054;28;102588;-88
2021/09/09 11:03:39;;;;;;;6.43;4.38;;;;;;;20.14;58.36;101865.91;5007012;28;102401;-88
2021/09/09 11:06:09;;;;;;;12.35;5.15;;;;;;;20.12;58.53;101866.25;5010845;28;102190;-88
2021/09/09 11:08:39;;;;;;;8.40;4.20;;;;;;;20.12;58.40;101865.41;5013995;27;102636;-88
2021/09/09 11:11:19;;;;;;;8.73;4.68;;;;;;;20.11;58.28;101861.81;5026817;27;102249;-85
2021/09/09 11:13:46;;;;;;;8.98;4.55;;;;;;;20.11;58.14;101855.47;5020675;28;104089;-85
2021/09/09 11:16:20;;;;;;;7.43;4.72;;;;;;;20.10;57.97;101848.31;5016698;27;102346;-85
2021/09/09 11:18:50;;;;;;;5.10;4.40;;;;;;;20.10;58.04;101845.56;5008673;28;102523;-85
2021/09/09 11:21:19;;;;;;;6.22;4.13;;;;;;;20.09;58.17;101841.97;5008270;28;102819;-85
2021/09/09 11:23:59;;;;;;;6.20;4.10;;;;;;;20.08;58.27;101839.50;5011713;28;107379;-85